sensor_id;sensor_type;location;lat;lon;timestamp;temperature;humidity
7920;DHT22;18778;47.610;9.776;2023-03-23T00:01:51;7.60;99.90
7920;DHT22;18778;47.610;9.776;2023-03-23T00:04:17;6.90;99.90
7920;DHT22;18778;47.610;9.776;2023-03-23T00:06:44;6.90;99.90
7920;DHT22;18778;47.610;9.776;2023-03-23T00:09:12;7.00;99.90
7920;DHT22;18778;47.610;9.776;2023-03-23T00:11:38;6.90;99.90
7920;DHT22;18778;47.610;9.776;2023-03-23T00:14:04;6.90;99.90
7920;DHT22;18778;47.610;9.776;2023-03-23T00:16:33;6.90;99.90
7920;DHT22;18778;47.610;9.776;2023-03-23T00:19:01;6.90;99.90
7920;DHT22;18778;47.610;9.776;2023-03-23T00:21:35;6.80;99.90
7920;DHT22;18778;47.610;9.776;2023-03-23T00:24:10;6.80;99.90
7920;DHT22;18778;47.610;9.776;2023-03-23T00:26:37;6.70;99.90
7920;DHT22;18778;47.610;9.776;2023-03-23T00:29:13;6.60;99.90
7920;DHT22;18778;47.610;9.776;2023-03-23T00:31:40;6.50;99.90
7920;DHT22;18778;47.610;9.776;2023-03-23T00:34:06;6.50;99.90
7920;DHT22;18778;47.610;9.776;2023-03-23T00:36:33;6.40;99.90
7920;DHT22;18778;47.610;9.776;2023-03-23T00:39:02;6.40;99.90
7920;DHT22;18778;47.610;9.776;2023-03-23T00:41:28;6.40;99.90
7920;DHT22;18778;47.610;9.776;2023-03-23T00:43:55;7.10;99.90
7920;DHT22;18778;47.610;9.776;2023-03-23T00:46:22;6.30;99.90
7920;DHT22;18778;47.610;9.776;2023-03-23T00:48:48;7.30;99.90
7920;DHT22;18778;47.610;9.776;2023-03-23T00:51:16;6.30;99.90
7920;DHT22;18778;47.610;9.776;2023-03-23T00:56:08;6.20;99.90
7920;DHT22;18778;47.610;9.776;2023-03-23T00:58:35;6.30;99.90
7920;DHT22;18778;47.610;9.776;2023-03-23T01:01:01;6.30;99.90
7920;DHT22;18778;47.610;9.776;2023-03-23T01:03:27;6.20;99.90
7920;DHT22;18778;47.610;9.776;2023-03-23T01:05:54;6.40;99.90
7920;DHT22;18778;47.610;9.776;2023-03-23T01:08:20;5.90;99.90
7920;DHT22;18778;47.610;9.776;2023-03-23T01:10:47;6.30;99.90
7920;DHT22;18778;47.610;9.776;2023-03-23T01:13:13;6.40;99.90
7920;DHT22;18778;47.610;9.776;2023-03-23T01:15:39;6.20;99.90
7920;DHT22;18778;47.610;9.776;2023-03-23T01:18:05;6.20;99.90
7920;DHT22;18778;47.610;9.776;2023-03-23T01:20:31;6.40;99.90
7920;DHT22;18778;47.610;9.776;2023-03-23T01:22:58;6.40;99.90
7920;DHT22;18778;47.610;9.776;2023-03-23T01:25:27;6.40;99.90
7920;DHT22;18778;47.610;9.776;2023-03-23T01:27:53;6.40;99.90
7920;DHT22;18778;47.610;9.776;2023-03-23T01:30:19;6.60;99.90
7920;DHT22;18778;47.610;9.776;2023-03-23T01:32:45;7.60;99.90
7920;DHT22;18778;47.610;9.776;2023-03-23T01:35:13;6.40;99.90
7920;DHT22;18778;47.610;9.776;2023-03-23T01:37:39;6.60;99.90
7920;DHT22;18778;47.610;9.776;2023-03-23T01:40:05;6.60;99.90
7920;DHT22;18778;47.610;9.776;2023-03-23T01:42:33;6.70;99.90
7920;DHT22;18778;47.610;9.776;2023-03-23T01:45:36;6.90;99.90
7920;DHT22;18778;47.610;9.776;2023-03-23T01:48:27;7.10;99.90
7920;DHT22;18778;47.610;9.776;2023-03-23T01:50:55;7.10;99.90
7920;DHT22;18778;47.610;9.776;2023-03-23T01:53:24;7.10;99.90
7920;DHT22;18778;47.610;9.776;2023-03-23T01:55:52;7.10;99.90
7920;DHT22;18778;47.610;9.776;2023-03-23T01:58:27;7.10;99.90
7920;DHT22;18778;47.610;9.776;2023-03-23T02:00:57;7.10;99.90
7920;DHT22;18778;47.610;9.776;2023-03-23T02:03:24;7.20;99.90
7920;DHT22;18778;47.610;9.776;2023-03-23T02:05:50;7.10;99.90
7920;DHT22;18778;47.610;9.776;2023-03-23T02:08:17;7.10;99.90
7920;DHT22;18778;47.610;9.776;2023-03-23T02:10:44;7.90;99.90
7920;DHT22;18778;47.610;9.776;2023-03-23T02:13:11;7.90;99.90
7920;DHT22;18778;47.610;9.776;2023-03-23T02:18:43;7.20;99.90
7920;DHT22;18778;47.610;9.776;2023-03-23T02:29:30;7.20;99.90
7920;DHT22;18778;47.610;9.776;2023-03-23T02:34:59;7.20;99.90
7920;DHT22;18778;47.610;9.776;2023-03-23T02:37:31;7.20;99.90
7920;DHT22;18778;47.610;9.776;2023-03-23T02:40:03;7.10;99.90
7920;DHT22;18778;47.610;9.776;2023-03-23T02:42:42;7.10;99.90
7920;DHT22;18778;47.610;9.776;2023-03-23T02:45:10;7.10;99.90
7920;DHT22;18778;47.610;9.776;2023-03-23T02:47:38;7.10;99.90
7920;DHT22;18778;47.610;9.776;2023-03-23T02:50:07;7.00;99.90
7920;DHT22;18778;47.610;9.776;2023-03-23T02:52:36;7.10;99.90
7920;DHT22;18778;47.610;9.776;2023-03-23T02:55:04;6.80;99.90
7920;DHT22;18778;47.610;9.776;2023-03-23T02:57:30;7.10;99.90
7920;DHT22;18778;47.610;9.776;2023-03-23T02:59:56;7.20;99.90
7920;DHT22;18778;47.610;9.776;2023-03-23T03:07:35;7.10;99.90
7920;DHT22;18778;47.610;9.776;2023-03-23T03:10:10;8.00;99.90
7920;DHT22;18778;47.610;9.776;2023-03-23T03:12:55;7.10;99.90
7920;DHT22;18778;47.610;9.776;2023-03-23T03:15:28;7.20;99.90
7920;DHT22;18778;47.610;9.776;2023-03-23T03:18:06;7.40;99.90
7920;DHT22;18778;47.610;9.776;2023-03-23T03:20:38;7.40;99.90
7920;DHT22;18778;47.610;9.776;2023-03-23T03:23:08;7.50;99.90
7920;DHT22;18778;47.610;9.776;2023-03-23T03:25:38;7.60;99.90
7920;DHT22;18778;47.610;9.776;2023-03-23T03:28:06;7.70;99.90
7920;DHT22;18778;47.610;9.776;2023-03-23T03:30:34;7.80;99.90
7920;DHT22;18778;47.610;9.776;2023-03-23T03:33:01;7.10;99.90
7920;DHT22;18778;47.610;9.776;2023-03-23T03:35:29;8.50;99.90
7920;DHT22;18778;47.610;9.776;2023-03-23T03:37:57;7.80;99.90
7920;DHT22;18778;47.610;9.776;2023-03-23T03:40:23;7.70;99.90
7920;DHT22;18778;47.610;9.776;2023-03-23T03:42:49;7.60;99.90
7920;DHT22;18778;47.610;9.776;2023-03-23T03:45:17;7.60;99.90
7920;DHT22;18778;47.610;9.776;2023-03-23T03:47:43;7.50;99.90
7920;DHT22;18778;47.610;9.776;2023-03-23T03:50:10;7.70;99.90
7920;DHT22;18778;47.610;9.776;2023-03-23T03:52:36;7.30;99.90
7920;DHT22;18778;47.610;9.776;2023-03-23T03:55:04;8.00;99.90
7920;DHT22;18778;47.610;9.776;2023-03-23T03:57:30;7.30;99.90
7920;DHT22;18778;47.610;9.776;2023-03-23T03:59:56;7.40;99.90
7920;DHT22;18778;47.610;9.776;2023-03-23T04:02:21;8.40;99.90
7920;DHT22;18778;47.610;9.776;2023-03-23T04:04:48;8.70;99.90
7920;DHT22;18778;47.610;9.776;2023-03-23T04:07:15;7.60;99.90
7920;DHT22;18778;47.610;9.776;2023-03-23T04:09:44;9.20;99.90
7920;DHT22;18778;47.610;9.776;2023-03-23T04:12:12;7.80;99.90
7920;DHT22;18778;47.610;9.776;2023-03-23T04:14:37;7.80;99.90
7920;DHT22;18778;47.610;9.776;2023-03-23T04:17:03;7.80;99.90
7920;DHT22;18778;47.610;9.776;2023-03-23T04:19:29;7.80;99.90
7920;DHT22;18778;47.610;9.776;2023-03-23T04:21:58;7.80;99.90
7920;DHT22;18778;47.610;9.776;2023-03-23T04:24:24;7.80;99.90
7920;DHT22;18778;47.610;9.776;2023-03-23T04:26:49;7.60;99.90
7920;DHT22;18778;47.610;9.776;2023-03-23T04:29:17;9.30;99.90
7920;DHT22;18778;47.610;9.776;2023-03-23T04:31:43;7.90;99.90
7920;DHT22;18778;47.610;9.776;2023-03-23T04:34:11;7.80;99.90
7920;DHT22;18778;47.610;9.776;2023-03-23T04:36:40;7.70;99.90
7920;DHT22;18778;47.610;9.776;2023-03-23T04:39:06;7.60;99.90
7920;DHT22;18778;47.610;9.776;2023-03-23T04:41:35;7.60;99.90
7920;DHT22;18778;47.610;9.776;2023-03-23T04:44:01;7.70;99.90
7920;DHT22;18778;47.610;9.776;2023-03-23T04:46:28;7.60;99.90
7920;DHT22;18778;47.610;9.776;2023-03-23T04:48:57;7.60;99.90
7920;DHT22;18778;47.610;9.776;2023-03-23T04:51:25;7.60;99.90
7920;DHT22;18778;47.610;9.776;2023-03-23T04:53:51;7.70;99.90
7920;DHT22;18778;47.610;9.776;2023-03-23T04:56:17;7.70;99.90
7920;DHT22;18778;47.610;9.776;2023-03-23T04:58:44;8.60;99.90
7920;DHT22;18778;47.610;9.776;2023-03-23T05:01:10;7.60;99.90
7920;DHT22;18778;47.610;9.776;2023-03-23T05:03:39;7.60;99.90
7920;DHT22;18778;47.610;9.776;2023-03-23T05:06:05;7.60;99.90
7920;DHT22;18778;47.610;9.776;2023-03-23T05:08:32;7.60;99.90
7920;DHT22;18778;47.610;9.776;2023-03-23T05:10:59;7.60;99.90
7920;DHT22;18778;47.610;9.776;2023-03-23T05:13:26;7.60;99.90
7920;DHT22;18778;47.610;9.776;2023-03-23T05:15:52;10.00;99.90
7920;DHT22;18778;47.610;9.776;2023-03-23T05:18:18;7.60;99.90
7920;DHT22;18778;47.610;9.776;2023-03-23T05:20:45;7.60;99.90
7920;DHT22;18778;47.610;9.776;2023-03-23T05:23:12;7.60;99.90
7920;DHT22;18778;47.610;9.776;2023-03-23T05:25:38;9.10;99.90
7920;DHT22;18778;47.610;9.776;2023-03-23T05:28:12;7.70;99.90
7920;DHT22;18778;47.610;9.776;2023-03-23T05:30:39;8.60;99.90
7920;DHT22;18778;47.610;9.776;2023-03-23T05:33:05;7.90;99.90
7920;DHT22;18778;47.610;9.776;2023-03-23T05:35:31;7.90;99.90
7920;DHT22;18778;47.610;9.776;2023-03-23T05:37:57;7.90;99.90
7920;DHT22;18778;47.610;9.776;2023-03-23T05:40:23;8.00;99.90
7920;DHT22;18778;47.610;9.776;2023-03-23T05:42:51;8.10;99.90
7920;DHT22;18778;47.610;9.776;2023-03-23T05:45:17;8.20;99.90
7920;DHT22;18778;47.610;9.776;2023-03-23T05:47:43;8.40;99.90
7920;DHT22;18778;47.610;9.776;2023-03-23T05:50:10;8.70;99.90
7920;DHT22;18778;47.610;9.776;2023-03-23T05:52:36;9.00;99.90
7920;DHT22;18778;47.610;9.776;2023-03-23T05:55:03;9.20;99.90
7920;DHT22;18778;47.610;9.776;2023-03-23T05:57:29;9.50;99.90
7920;DHT22;18778;47.610;9.776;2023-03-23T05:59:55;12.40;99.90
7920;DHT22;18778;47.610;9.776;2023-03-23T06:02:23;10.00;99.90
7920;DHT22;18778;47.610;9.776;2023-03-23T06:04:49;10.40;99.90
7920;DHT22;18778;47.610;9.776;2023-03-23T06:07:15;10.60;99.90
7920;DHT22;18778;47.610;9.776;2023-03-23T06:09:41;10.80;99.90
7920;DHT22;18778;47.610;9.776;2023-03-23T06:12:07;11.00;99.90
7920;DHT22;18778;47.610;9.776;2023-03-23T06:14:35;11.00;99.90
7920;DHT22;18778;47.610;9.776;2023-03-23T06:17:00;11.10;99.90
7920;DHT22;18778;47.610;9.776;2023-03-23T06:21:54;11.20;99.90
7920;DHT22;18778;47.610;9.776;2023-03-23T06:24:19;11.40;99.90
7920;DHT22;18778;47.610;9.776;2023-03-23T06:26:45;11.50;99.90
7920;DHT22;18778;47.610;9.776;2023-03-23T06:29:10;11.60;99.90
7920;DHT22;18778;47.610;9.776;2023-03-23T06:31:43;11.70;99.90
7920;DHT22;18778;47.610;9.776;2023-03-23T06:34:10;11.90;99.70
7920;DHT22;18778;47.610;9.776;2023-03-23T06:36:36;12.00;98.80
7920;DHT22;18778;47.610;9.776;2023-03-23T06:39:04;12.90;99.20
7920;DHT22;18778;47.610;9.776;2023-03-23T06:41:31;12.20;98.60
7920;DHT22;18778;47.610;9.776;2023-03-23T06:43:57;12.20;98.50
7920;DHT22;18778;47.610;9.776;2023-03-23T06:46:22;12.40;98.60
7920;DHT22;18778;47.610;9.776;2023-03-23T06:48:48;12.40;98.60
7920;DHT22;18778;47.610;9.776;2023-03-23T06:51:16;12.40;98.30
7920;DHT22;18778;47.610;9.776;2023-03-23T06:53:42;12.50;98.10
7920;DHT22;18778;47.610;9.776;2023-03-23T06:56:08;12.60;98.10
7920;DHT22;18778;47.610;9.776;2023-03-23T06:58:33;12.60;97.80
7920;DHT22;18778;47.610;9.776;2023-03-23T07:00:59;12.70;97.20
7920;DHT22;18778;47.610;9.776;2023-03-23T07:03:26;12.70;96.20
7920;DHT22;18778;47.610;9.776;2023-03-23T07:05:53;12.60;96.00
7920;DHT22;18778;47.610;9.776;2023-03-23T07:08:19;12.80;95.60
7920;DHT22;18778;47.610;9.776;2023-03-23T07:10:46;12.90;97.50
7920;DHT22;18778;47.610;9.776;2023-03-23T07:13:12;12.90;96.60
7920;DHT22;18778;47.610;9.776;2023-03-23T07:15:38;13.30;98.00
7920;DHT22;18778;47.610;9.776;2023-03-23T07:18:04;13.10;97.70
7920;DHT22;18778;47.610;9.776;2023-03-23T07:20:30;12.90;98.00
7920;DHT22;18778;47.610;9.776;2023-03-23T07:22:56;13.00;97.70
7920;DHT22;18778;47.610;9.776;2023-03-23T07:25:21;13.10;97.70
7920;DHT22;18778;47.610;9.776;2023-03-23T07:27:47;14.20;96.80
7920;DHT22;18778;47.610;9.776;2023-03-23T07:30:13;15.10;96.30
7920;DHT22;18778;47.610;9.776;2023-03-23T07:32:40;13.20;94.30
7920;DHT22;18778;47.610;9.776;2023-03-23T07:35:06;13.30;94.00
7920;DHT22;18778;47.610;9.776;2023-03-23T07:37:32;13.40;94.00
7920;DHT22;18778;47.610;9.776;2023-03-23T07:39:58;16.40;95.30
7920;DHT22;18778;47.610;9.776;2023-03-23T07:42:23;15.30;95.10
7920;DHT22;18778;47.610;9.776;2023-03-23T07:44:49;15.40;95.50
7920;DHT22;18778;47.610;9.776;2023-03-23T07:47:15;15.80;95.30
7920;DHT22;18778;47.610;9.776;2023-03-23T07:49:40;13.40;97.80
7920;DHT22;18778;47.610;9.776;2023-03-23T07:52:06;13.70;96.30
7920;DHT22;18778;47.610;9.776;2023-03-23T07:54:32;13.70;96.70
7920;DHT22;18778;47.610;9.776;2023-03-23T07:56:57;15.00;95.60
7920;DHT22;18778;47.610;9.776;2023-03-23T07:59:23;14.60;95.10
7920;DHT22;18778;47.610;9.776;2023-03-23T08:01:48;13.90;95.10
7920;DHT22;18778;47.610;9.776;2023-03-23T08:04:14;17.00;98.50
7920;DHT22;18778;47.610;9.776;2023-03-23T08:06:40;14.40;94.30
7920;DHT22;18778;47.610;9.776;2023-03-23T08:09:07;14.50;94.60
7920;DHT22;18778;47.610;9.776;2023-03-23T08:11:37;15.90;94.80
7920;DHT22;18778;47.610;9.776;2023-03-23T08:14:04;15.00;94.20
7920;DHT22;18778;47.610;9.776;2023-03-23T08:16:31;14.40;93.30
7920;DHT22;18778;47.610;9.776;2023-03-23T08:18:56;14.40;93.60
7920;DHT22;18778;47.610;9.776;2023-03-23T08:21:22;15.40;94.00
7920;DHT22;18778;47.610;9.776;2023-03-23T08:23:48;14.70;93.70
7920;DHT22;18778;47.610;9.776;2023-03-23T08:26:14;15.10;94.10
7920;DHT22;18778;47.610;9.776;2023-03-23T08:28:40;16.90;95.80
7920;DHT22;18778;47.610;9.776;2023-03-23T08:31:11;15.50;93.60
7920;DHT22;18778;47.610;9.776;2023-03-23T08:33:38;15.80;92.10
7920;DHT22;18778;47.610;9.776;2023-03-23T08:36:04;16.50;92.20
7920;DHT22;18778;47.610;9.776;2023-03-23T08:38:30;16.20;91.00
7920;DHT22;18778;47.610;9.776;2023-03-23T08:41:04;17.40;91.80
7920;DHT22;18778;47.610;9.776;2023-03-23T08:43:32;16.60;91.40
7920;DHT22;18778;47.610;9.776;2023-03-23T08:45:58;16.90;90.00
7920;DHT22;18778;47.610;9.776;2023-03-23T08:48:24;17.40;89.60
7920;DHT22;18778;47.610;9.776;2023-03-23T08:50:50;17.10;91.50
7920;DHT22;18778;47.610;9.776;2023-03-23T08:53:16;20.20;91.10
7920;DHT22;18778;47.610;9.776;2023-03-23T08:55:42;17.30;88.70
7920;DHT22;18778;47.610;9.776;2023-03-23T08:58:08;17.30;87.20
7920;DHT22;18778;47.610;9.776;2023-03-23T09:00:34;17.40;87.20
7920;DHT22;18778;47.610;9.776;2023-03-23T09:03:00;17.30;86.60
7920;DHT22;18778;47.610;9.776;2023-03-23T09:05:27;17.40;86.90
7920;DHT22;18778;47.610;9.776;2023-03-23T09:07:54;17.50;87.80
7920;DHT22;18778;47.610;9.776;2023-03-23T09:10:21;17.60;88.00
7920;DHT22;18778;47.610;9.776;2023-03-23T09:12:48;17.60;91.10
7920;DHT22;18778;47.610;9.776;2023-03-23T09:15:16;19.20;91.00
7920;DHT22;18778;47.610;9.776;2023-03-23T09:17:44;18.10;87.20
7920;DHT22;18778;47.610;9.776;2023-03-23T09:20:12;18.40;90.60
7920;DHT22;18778;47.610;9.776;2023-03-23T09:22:40;17.90;87.00
7920;DHT22;18778;47.610;9.776;2023-03-23T09:25:08;18.50;87.60
7920;DHT22;18778;47.610;9.776;2023-03-23T09:27:34;17.70;88.40
7920;DHT22;18778;47.610;9.776;2023-03-23T09:30:03;17.60;88.40
7920;DHT22;18778;47.610;9.776;2023-03-23T09:32:32;17.40;87.00
7920;DHT22;18778;47.610;9.776;2023-03-23T09:34:58;18.30;88.90
7920;DHT22;18778;47.610;9.776;2023-03-23T09:37:24;17.40;91.90
7920;DHT22;18778;47.610;9.776;2023-03-23T09:39:49;17.60;91.10
7920;DHT22;18778;47.610;9.776;2023-03-23T09:45:04;17.50;90.30
7920;DHT22;18778;47.610;9.776;2023-03-23T09:50:19;17.40;90.70
7920;DHT22;18778;47.610;9.776;2023-03-23T09:53:12;17.40;90.00
7920;DHT22;18778;47.610;9.776;2023-03-23T09:55:39;17.50;91.00
7920;DHT22;18778;47.610;9.776;2023-03-23T09:58:27;17.50;89.40
7920;DHT22;18778;47.610;9.776;2023-03-23T10:01:07;17.60;90.70
7920;DHT22;18778;47.610;9.776;2023-03-23T10:03:39;17.60;89.50
7920;DHT22;18778;47.610;9.776;2023-03-23T10:06:05;17.80;92.50
7920;DHT22;18778;47.610;9.776;2023-03-23T10:08:33;17.80;92.30
7920;DHT22;18778;47.610;9.776;2023-03-23T10:16:04;18.00;91.10
7920;DHT22;18778;47.610;9.776;2023-03-23T10:18:55;18.00;89.80
7920;DHT22;18778;47.610;9.776;2023-03-23T10:21:23;18.20;88.70
7920;DHT22;18778;47.610;9.776;2023-03-23T10:29:36;18.40;90.00
7920;DHT22;18778;47.610;9.776;2023-03-23T10:32:43;18.70;83.40
7920;DHT22;18778;47.610;9.776;2023-03-23T10:35:25;18.90;84.10
7920;DHT22;18778;47.610;9.776;2023-03-23T10:37:58;18.90;86.20
7920;DHT22;18778;47.610;9.776;2023-03-23T10:40:28;18.70;82.00
7920;DHT22;18778;47.610;9.776;2023-03-23T10:42:55;18.70;82.20
7920;DHT22;18778;47.610;9.776;2023-03-23T10:45:28;18.50;81.40
7920;DHT22;18778;47.610;9.776;2023-03-23T10:50:44;18.70;85.20
7920;DHT22;18778;47.610;9.776;2023-03-23T10:53:18;18.70;81.90
7920;DHT22;18778;47.610;9.776;2023-03-23T10:55:45;19.00;87.60
7920;DHT22;18778;47.610;9.776;2023-03-23T10:58:23;18.80;87.60
7920;DHT22;18778;47.610;9.776;2023-03-23T11:00:49;18.80;84.70
7920;DHT22;18778;47.610;9.776;2023-03-23T11:05:44;18.70;83.70
7920;DHT22;18778;47.610;9.776;2023-03-23T11:08:14;18.80;86.20
7920;DHT22;18778;47.610;9.776;2023-03-23T11:10:47;18.80;85.90
7920;DHT22;18778;47.610;9.776;2023-03-23T11:13:15;18.90;79.10
7920;DHT22;18778;47.610;9.776;2023-03-23T11:15:43;18.70;81.50
7920;DHT22;18778;47.610;9.776;2023-03-23T11:18:18;18.50;80.00
7920;DHT22;18778;47.610;9.776;2023-03-23T11:20:46;18.90;85.80
7920;DHT22;18778;47.610;9.776;2023-03-23T11:23:21;19.40;87.40
7920;DHT22;18778;47.610;9.776;2023-03-23T11:25:56;18.90;83.60
7920;DHT22;18778;47.610;9.776;2023-03-23T11:28:30;18.80;84.40
7920;DHT22;18778;47.610;9.776;2023-03-23T11:30:58;18.70;83.00
7920;DHT22;18778;47.610;9.776;2023-03-23T11:33:28;18.60;80.00
7920;DHT22;18778;47.610;9.776;2023-03-23T11:35:54;18.30;79.20
7920;DHT22;18778;47.610;9.776;2023-03-23T11:38:21;18.00;81.00
7920;DHT22;18778;47.610;9.776;2023-03-23T11:40:50;17.90;82.10
7920;DHT22;18778;47.610;9.776;2023-03-23T11:43:24;17.80;80.90
7920;DHT22;18778;47.610;9.776;2023-03-23T11:49:01;17.70;83.70
7920;DHT22;18778;47.610;9.776;2023-03-23T11:51:42;17.60;83.10
7920;DHT22;18778;47.610;9.776;2023-03-23T11:54:38;17.70;83.80
7920;DHT22;18778;47.610;9.776;2023-03-23T11:57:09;17.70;87.70
7920;DHT22;18778;47.610;9.776;2023-03-23T11:59:37;18.20;86.80
7920;DHT22;18778;47.610;9.776;2023-03-23T12:16:29;19.00;85.70
7920;DHT22;18778;47.610;9.776;2023-03-23T12:35:42;19.80;80.60
7920;DHT22;18778;47.610;9.776;2023-03-23T12:38:31;19.90;83.10
7920;DHT22;18778;47.610;9.776;2023-03-23T12:43:44;20.20;83.20
7920;DHT22;18778;47.610;9.776;2023-03-23T12:51:58;20.20;77.60
7920;DHT22;18778;47.610;9.776;2023-03-23T12:54:39;20.10;79.70
7920;DHT22;18778;47.610;9.776;2023-03-23T12:57:18;20.10;76.70
7920;DHT22;18778;47.610;9.776;2023-03-23T12:59:53;20.20;79.70
7920;DHT22;18778;47.610;9.776;2023-03-23T13:02:31;20.30;79.50
7920;DHT22;18778;47.610;9.776;2023-03-23T13:07:47;20.20;79.10
7920;DHT22;18778;47.610;9.776;2023-03-23T13:10:17;20.20;79.50
7920;DHT22;18778;47.610;9.776;2023-03-23T13:12:45;20.40;80.50
7920;DHT22;18778;47.610;9.776;2023-03-23T13:15:23;20.30;79.30
7920;DHT22;18778;47.610;9.776;2023-03-23T13:18:23;20.00;80.80
7920;DHT22;18778;47.610;9.776;2023-03-23T13:23:45;19.90;82.20
7920;DHT22;18778;47.610;9.776;2023-03-23T13:26:17;20.00;80.00
7920;DHT22;18778;47.610;9.776;2023-03-23T13:31:42;19.40;80.70
7920;DHT22;18778;47.610;9.776;2023-03-23T13:40:28;18.40;78.60
7920;DHT22;18778;47.610;9.776;2023-03-23T13:42:59;18.30;80.00
7920;DHT22;18778;47.610;9.776;2023-03-23T13:50:59;18.40;81.50
7920;DHT22;18778;47.610;9.776;2023-03-23T13:53:47;18.60;81.70
7920;DHT22;18778;47.610;9.776;2023-03-23T13:56:21;18.80;81.80
7920;DHT22;18778;47.610;9.776;2023-03-23T13:59:04;19.30;82.60
7920;DHT22;18778;47.610;9.776;2023-03-23T14:01:34;19.50;78.90
7920;DHT22;18778;47.610;9.776;2023-03-23T14:04:02;19.60;83.90
7920;DHT22;18778;47.610;9.776;2023-03-23T14:06:34;19.70;78.30
7920;DHT22;18778;47.610;9.776;2023-03-23T14:11:59;19.40;81.10
7920;DHT22;18778;47.610;9.776;2023-03-23T14:14:38;19.20;81.50
7920;DHT22;18778;47.610;9.776;2023-03-23T14:17:13;19.10;82.80
7920;DHT22;18778;47.610;9.776;2023-03-23T14:19:51;19.00;81.50
7920;DHT22;18778;47.610;9.776;2023-03-23T14:22:24;18.80;80.30
7920;DHT22;18778;47.610;9.776;2023-03-23T14:24:50;18.70;81.90
7920;DHT22;18778;47.610;9.776;2023-03-23T14:27:19;18.70;80.10
7920;DHT22;18778;47.610;9.776;2023-03-23T14:29:45;18.60;83.40
7920;DHT22;18778;47.610;9.776;2023-03-23T14:32:16;18.50;81.80
7920;DHT22;18778;47.610;9.776;2023-03-23T14:34:44;18.30;82.50
7920;DHT22;18778;47.610;9.776;2023-03-23T14:37:13;18.10;85.30
7920;DHT22;18778;47.610;9.776;2023-03-23T14:39:47;18.00;83.50
7920;DHT22;18778;47.610;9.776;2023-03-23T14:42:16;17.90;83.00
7920;DHT22;18778;47.610;9.776;2023-03-23T14:44:47;17.80;86.30
7920;DHT22;18778;47.610;9.776;2023-03-23T14:47:20;17.80;87.30
7920;DHT22;18778;47.610;9.776;2023-03-23T14:49:47;17.70;89.80
7920;DHT22;18778;47.610;9.776;2023-03-23T14:52:17;17.60;86.70
7920;DHT22;18778;47.610;9.776;2023-03-23T14:54:45;17.50;89.70
7920;DHT22;18778;47.610;9.776;2023-03-23T14:57:18;17.50;89.50
7920;DHT22;18778;47.610;9.776;2023-03-23T14:59:46;17.40;87.10
7920;DHT22;18778;47.610;9.776;2023-03-23T15:02:35;17.30;87.20
7920;DHT22;18778;47.610;9.776;2023-03-23T15:05:19;17.30;87.50
7920;DHT22;18778;47.610;9.776;2023-03-23T15:07:48;17.20;89.30
7920;DHT22;18778;47.610;9.776;2023-03-23T15:10:20;17.10;89.70
7920;DHT22;18778;47.610;9.776;2023-03-23T15:12:47;17.10;88.00
7920;DHT22;18778;47.610;9.776;2023-03-23T15:15:22;17.00;86.70
7920;DHT22;18778;47.610;9.776;2023-03-23T15:17:49;17.00;87.70
7920;DHT22;18778;47.610;9.776;2023-03-23T15:20:30;17.00;89.40
7920;DHT22;18778;47.610;9.776;2023-03-23T15:23:05;16.70;88.80
7920;DHT22;18778;47.610;9.776;2023-03-23T15:25:33;16.50;90.70
7920;DHT22;18778;47.610;9.776;2023-03-23T15:28:15;16.40;90.80
7920;DHT22;18778;47.610;9.776;2023-03-23T15:30:50;16.20;90.80
7920;DHT22;18778;47.610;9.776;2023-03-23T15:33:16;16.00;91.80
7920;DHT22;18778;47.610;9.776;2023-03-23T15:35:50;15.90;91.70
7920;DHT22;18778;47.610;9.776;2023-03-23T15:38:51;15.80;92.10
7920;DHT22;18778;47.610;9.776;2023-03-23T15:41:26;15.80;92.40
7920;DHT22;18778;47.610;9.776;2023-03-23T15:43:58;15.80;92.30
7920;DHT22;18778;47.610;9.776;2023-03-23T15:46:25;15.80;92.90
7920;DHT22;18778;47.610;9.776;2023-03-23T15:51:30;15.90;92.40
7920;DHT22;18778;47.610;9.776;2023-03-23T15:53:56;15.80;92.50
7920;DHT22;18778;47.610;9.776;2023-03-23T15:56:23;15.70;92.70
7920;DHT22;18778;47.610;9.776;2023-03-23T16:01:22;15.80;93.40
7920;DHT22;18778;47.610;9.776;2023-03-23T16:03:56;15.90;94.30
7920;DHT22;18778;47.610;9.776;2023-03-23T16:06:23;15.80;92.30
7920;DHT22;18778;47.610;9.776;2023-03-23T16:08:50;15.60;91.90
7920;DHT22;18778;47.610;9.776;2023-03-23T16:11:17;15.50;92.40
7920;DHT22;18778;47.610;9.776;2023-03-23T16:13:43;16.20;93.10
7920;DHT22;18778;47.610;9.776;2023-03-23T16:16:15;15.40;92.70
7920;DHT22;18778;47.610;9.776;2023-03-23T16:18:40;16.50;93.70
7920;DHT22;18778;47.610;9.776;2023-03-23T16:21:06;15.30;93.70
7920;DHT22;18778;47.610;9.776;2023-03-23T16:23:32;15.20;93.70
7920;DHT22;18778;47.610;9.776;2023-03-23T16:28:23;15.20;94.00
7920;DHT22;18778;47.610;9.776;2023-03-23T16:30:49;15.10;93.70
7920;DHT22;18778;47.610;9.776;2023-03-23T16:33:15;15.20;94.00
7920;DHT22;18778;47.610;9.776;2023-03-23T16:35:40;15.20;93.60
7920;DHT22;18778;47.610;9.776;2023-03-23T16:38:12;16.50;94.60
7920;DHT22;18778;47.610;9.776;2023-03-23T16:40:39;17.60;95.20
7920;DHT22;18778;47.610;9.776;2023-03-23T16:43:05;15.10;94.10
7920;DHT22;18778;47.610;9.776;2023-03-23T16:45:30;15.70;94.40
7920;DHT22;18778;47.610;9.776;2023-03-23T16:47:56;15.10;93.90
7920;DHT22;18778;47.610;9.776;2023-03-23T16:50:26;15.10;93.90
7920;DHT22;18778;47.610;9.776;2023-03-23T16:52:52;14.90;93.70
7920;DHT22;18778;47.610;9.776;2023-03-23T16:57:44;14.90;93.40
7920;DHT22;18778;47.610;9.776;2023-03-23T17:00:16;15.20;93.80
7920;DHT22;18778;47.610;9.776;2023-03-23T17:02:45;14.90;93.50
7920;DHT22;18778;47.610;9.776;2023-03-23T17:05:12;16.40;94.50
7920;DHT22;18778;47.610;9.776;2023-03-23T17:07:39;14.90;94.10
7920;DHT22;18778;47.610;9.776;2023-03-23T17:10:07;14.70;93.80
7920;DHT22;18778;47.610;9.776;2023-03-23T17:12:33;14.70;94.40
7920;DHT22;18778;47.610;9.776;2023-03-23T17:14:59;15.30;94.90
7920;DHT22;18778;47.610;9.776;2023-03-23T17:17:25;14.60;95.40
7920;DHT22;18778;47.610;9.776;2023-03-23T17:19:51;14.60;95.60
7920;DHT22;18778;47.610;9.776;2023-03-23T17:22:17;17.20;97.40
7920;DHT22;18778;47.610;9.776;2023-03-23T17:24:42;15.80;97.20
7920;DHT22;18778;47.610;9.776;2023-03-23T17:27:08;14.40;96.10
7920;DHT22;18778;47.610;9.776;2023-03-23T17:29:34;16.40;97.20
7920;DHT22;18778;47.610;9.776;2023-03-23T17:32:00;14.40;96.60
7920;DHT22;18778;47.610;9.776;2023-03-23T17:34:25;14.40;96.50
7920;DHT22;18778;47.610;9.776;2023-03-23T17:36:52;16.30;97.10
7920;DHT22;18778;47.610;9.776;2023-03-23T17:39:18;16.60;98.00
7920;DHT22;18778;47.610;9.776;2023-03-23T17:41:43;16.70;98.30
7920;DHT22;18778;47.610;9.776;2023-03-23T17:44:09;14.10;97.30
7920;DHT22;18778;47.610;9.776;2023-03-23T17:46:34;14.40;98.20
7920;DHT22;18778;47.610;9.776;2023-03-23T17:49:00;15.20;98.50
7920;DHT22;18778;47.610;9.776;2023-03-23T17:51:26;13.90;97.10
7920;DHT22;18778;47.610;9.776;2023-03-23T17:53:51;13.90;97.70
7920;DHT22;18778;47.610;9.776;2023-03-23T17:56:17;13.80;98.30
7920;DHT22;18778;47.610;9.776;2023-03-23T17:58:42;13.90;98.20
7920;DHT22;18778;47.610;9.776;2023-03-23T18:01:08;13.70;97.20
7920;DHT22;18778;47.610;9.776;2023-03-23T18:03:34;13.90;97.90
7920;DHT22;18778;47.610;9.776;2023-03-23T18:06:04;14.20;98.40